sensor_id;sensor_type;location;lat;lon;timestamp;P1;durP1;ratioP1;P2;durP2;ratioP2
42832;SDS011;64089;51.478;5.692;2022-12-07T00:01:15;16.58;;;8.48;;
42832;SDS011;64089;51.478;5.692;2022-12-07T00:03:49;17.75;;;8.60;;
42832;SDS011;64089;51.478;5.692;2022-12-07T00:06:17;18.20;;;9.45;;
42832;SDS011;64089;51.478;5.692;2022-12-07T00:08:44;14.40;;;8.07;;
42832;SDS011;64089;51.478;5.692;2022-12-07T00:11:14;16.13;;;8.45;;
42832;SDS011;64089;51.478;5.692;2022-12-07T00:16:09;18.70;;;9.82;;
42832;SDS011;64089;51.478;5.692;2022-12-07T00:18:37;20.73;;;8.68;;
42832;SDS011;64089;51.478;5.692;2022-12-07T00:21:04;16.35;;;9.25;;
42832;SDS011;64089;51.478;5.692;2022-12-07T00:23:32;15.48;;;8.50;;
42832;SDS011;64089;51.478;5.692;2022-12-07T00:26:05;17.77;;;9.18;;
42832;SDS011;64089;51.478;5.692;2022-12-07T00:28:31;17.52;;;8.85;;
42832;SDS011;64089;51.478;5.692;2022-12-07T00:31:11;15.85;;;8.05;;
42832;SDS011;64089;51.478;5.692;2022-12-07T00:33:37;15.65;;;8.25;;
42832;SDS011;64089;51.478;5.692;2022-12-07T00:36:05;21.75;;;8.45;;
42832;SDS011;64089;51.478;5.692;2022-12-07T00:38:33;19.27;;;8.45;;
42832;SDS011;64089;51.478;5.692;2022-12-07T00:41:07;19.27;;;9.43;;
42832;SDS011;64089;51.478;5.692;2022-12-07T00:43:39;17.45;;;9.32;;
42832;SDS011;64089;51.478;5.692;2022-12-07T00:46:05;15.10;;;8.25;;
42832;SDS011;64089;51.478;5.692;2022-12-07T00:48:31;22.67;;;9.50;;
42832;SDS011;64089;51.478;5.692;2022-12-07T00:50:57;21.23;;;8.80;;
42832;SDS011;64089;51.478;5.692;2022-12-07T00:53:24;15.45;;;8.43;;
42832;SDS011;64089;51.478;5.692;2022-12-07T00:55:49;14.27;;;8.68;;
42832;SDS011;64089;51.478;5.692;2022-12-07T00:58:15;19.77;;;8.90;;
42832;SDS011;64089;51.478;5.692;2022-12-07T01:00:41;12.77;;;7.78;;
42832;SDS011;64089;51.478;5.692;2022-12-07T01:03:08;17.70;;;8.73;;
42832;SDS011;64089;51.478;5.692;2022-12-07T01:05:36;16.45;;;8.23;;
42832;SDS011;64089;51.478;5.692;2022-12-07T01:08:02;15.85;;;8.30;;
42832;SDS011;64089;51.478;5.692;2022-12-07T01:10:28;17.08;;;8.18;;
42832;SDS011;64089;51.478;5.692;2022-12-07T01:12:55;15.63;;;8.27;;
42832;SDS011;64089;51.478;5.692;2022-12-07T01:15:21;22.42;;;7.93;;
42832;SDS011;64089;51.478;5.692;2022-12-07T01:17:46;14.43;;;7.97;;
42832;SDS011;64089;51.478;5.692;2022-12-07T01:20:12;17.13;;;8.75;;
42832;SDS011;64089;51.478;5.692;2022-12-07T01:22:39;18.27;;;8.88;;
42832;SDS011;64089;51.478;5.692;2022-12-07T01:25:06;20.85;;;8.95;;
42832;SDS011;64089;51.478;5.692;2022-12-07T01:27:33;21.45;;;9.65;;
42832;SDS011;64089;51.478;5.692;2022-12-07T01:29:59;18.35;;;8.30;;
42832;SDS011;64089;51.478;5.692;2022-12-07T01:32:26;19.08;;;9.10;;
42832;SDS011;64089;51.478;5.692;2022-12-07T01:34:51;16.13;;;8.07;;
42832;SDS011;64089;51.478;5.692;2022-12-07T01:37:17;19.83;;;8.43;;
42832;SDS011;64089;51.478;5.692;2022-12-07T01:39:43;18.90;;;7.82;;
42832;SDS011;64089;51.478;5.692;2022-12-07T01:42:10;16.02;;;8.15;;
42832;SDS011;64089;51.478;5.692;2022-12-07T01:47:39;16.67;;;8.57;;
42832;SDS011;64089;51.478;5.692;2022-12-07T01:50:06;18.50;;;8.20;;
42832;SDS011;64089;51.478;5.692;2022-12-07T01:52:32;15.77;;;7.85;;
42832;SDS011;64089;51.478;5.692;2022-12-07T01:55:01;15.98;;;7.15;;
42832;SDS011;64089;51.478;5.692;2022-12-07T01:57:33;18.05;;;8.02;;
42832;SDS011;64089;51.478;5.692;2022-12-07T02:00:01;19.15;;;6.68;;
42832;SDS011;64089;51.478;5.692;2022-12-07T02:02:32;14.85;;;7.00;;
42832;SDS011;64089;51.478;5.692;2022-12-07T02:07:27;15.50;;;6.10;;
42832;SDS011;64089;51.478;5.692;2022-12-07T02:09:53;11.52;;;6.45;;
42832;SDS011;64089;51.478;5.692;2022-12-07T02:12:19;17.27;;;8.05;;
42832;SDS011;64089;51.478;5.692;2022-12-07T02:14:46;15.10;;;5.75;;
42832;SDS011;64089;51.478;5.692;2022-12-07T02:17:19;18.75;;;6.97;;
42832;SDS011;64089;51.478;5.692;2022-12-07T02:34:07;14.88;;;6.97;;
42832;SDS011;64089;51.478;5.692;2022-12-07T02:36:40;13.35;;;7.40;;
42832;SDS011;64089;51.478;5.692;2022-12-07T02:39:14;13.35;;;7.18;;
42832;SDS011;64089;51.478;5.692;2022-12-07T02:41:49;17.70;;;6.80;;
42832;SDS011;64089;51.478;5.692;2022-12-07T02:44:23;19.25;;;7.18;;
42832;SDS011;64089;51.478;5.692;2022-12-07T02:46:52;22.92;;;6.57;;
42832;SDS011;64089;51.478;5.692;2022-12-07T02:49:34;14.77;;;7.18;;
42832;SDS011;64089;51.478;5.692;2022-12-07T02:52:01;14.57;;;6.88;;
42832;SDS011;64089;51.478;5.692;2022-12-07T02:54:27;11.88;;;6.78;;
42832;SDS011;64089;51.478;5.692;2022-12-07T03:00:05;12.18;;;6.75;;
42832;SDS011;64089;51.478;5.692;2022-12-07T03:02:50;17.77;;;6.83;;
42832;SDS011;64089;51.478;5.692;2022-12-07T03:08:13;11.95;;;6.70;;
42832;SDS011;64089;51.478;5.692;2022-12-07T03:11:00;19.73;;;6.95;;
42832;SDS011;64089;51.478;5.692;2022-12-07T03:13:54;14.40;;;7.30;;
42832;SDS011;64089;51.478;5.692;2022-12-07T03:16:30;11.57;;;6.38;;
42832;SDS011;64089;51.478;5.692;2022-12-07T03:19:05;19.02;;;6.78;;
42832;SDS011;64089;51.478;5.692;2022-12-07T03:21:41;21.10;;;7.93;;
42832;SDS011;64089;51.478;5.692;2022-12-07T03:24:12;13.77;;;7.20;;
42832;SDS011;64089;51.478;5.692;2022-12-07T03:26:47;12.88;;;7.05;;
42832;SDS011;64089;51.478;5.692;2022-12-07T03:29:22;15.93;;;7.95;;
42832;SDS011;64089;51.478;5.692;2022-12-07T03:32:04;12.90;;;6.85;;
42832;SDS011;64089;51.478;5.692;2022-12-07T03:34:44;12.70;;;6.68;;
42832;SDS011;64089;51.478;5.692;2022-12-07T03:37:17;18.52;;;6.75;;
42832;SDS011;64089;51.478;5.692;2022-12-07T03:42:33;18.55;;;6.68;;
42832;SDS011;64089;51.478;5.692;2022-12-07T03:44:59;13.90;;;6.80;;
42832;SDS011;64089;51.478;5.692;2022-12-07T03:52:57;12.93;;;6.90;;
42832;SDS011;64089;51.478;5.692;2022-12-07T03:55:31;10.80;;;6.15;;
42832;SDS011;64089;51.478;5.692;2022-12-07T03:58:02;16.00;;;6.97;;
42832;SDS011;64089;51.478;5.692;2022-12-07T04:00:34;10.43;;;6.00;;
42832;SDS011;64089;51.478;5.692;2022-12-07T04:03:00;19.27;;;6.72;;
42832;SDS011;64089;51.478;5.692;2022-12-07T04:05:25;15.52;;;5.90;;
42832;SDS011;64089;51.478;5.692;2022-12-07T04:07:51;21.30;;;6.38;;
42832;SDS011;64089;51.478;5.692;2022-12-07T04:10:17;12.43;;;5.72;;
42832;SDS011;64089;51.478;5.692;2022-12-07T04:12:43;18.60;;;6.68;;
42832;SDS011;64089;51.478;5.692;2022-12-07T04:15:08;13.45;;;6.50;;
42832;SDS011;64089;51.478;5.692;2022-12-07T04:17:34;17.23;;;6.65;;
42832;SDS011;64089;51.478;5.692;2022-12-07T04:20:00;15.90;;;6.60;;
42832;SDS011;64089;51.478;5.692;2022-12-07T04:22:27;14.20;;;5.68;;
42832;SDS011;64089;51.478;5.692;2022-12-07T04:24:52;8.90;;;4.57;;
42832;SDS011;64089;51.478;5.692;2022-12-07T04:27:18;11.30;;;6.65;;
42832;SDS011;64089;51.478;5.692;2022-12-07T04:29:43;8.93;;;6.07;;
42832;SDS011;64089;51.478;5.692;2022-12-07T04:32:09;8.65;;;5.18;;
42832;SDS011;64089;51.478;5.692;2022-12-07T04:34:34;9.40;;;5.22;;
42832;SDS011;64089;51.478;5.692;2022-12-07T04:37:00;12.90;;;5.05;;
42832;SDS011;64089;51.478;5.692;2022-12-07T04:39:27;9.00;;;4.70;;
42832;SDS011;64089;51.478;5.692;2022-12-07T04:41:54;10.05;;;5.28;;
42832;SDS011;64089;51.478;5.692;2022-12-07T04:44:21;13.70;;;4.80;;
42832;SDS011;64089;51.478;5.692;2022-12-07T04:46:48;14.20;;;4.72;;
42832;SDS011;64089;51.478;5.692;2022-12-07T04:49:14;12.07;;;4.70;;
42832;SDS011;64089;51.478;5.692;2022-12-07T04:51:40;9.77;;;4.78;;
42832;SDS011;64089;51.478;5.692;2022-12-07T04:54:06;11.98;;;5.07;;
42832;SDS011;64089;51.478;5.692;2022-12-07T04:56:32;9.88;;;4.68;;
42832;SDS011;64089;51.478;5.692;2022-12-07T04:59:00;17.73;;;5.47;;
42832;SDS011;64089;51.478;5.692;2022-12-07T05:01:26;14.52;;;4.80;;
42832;SDS011;64089;51.478;5.692;2022-12-07T05:03:51;15.25;;;4.93;;
42832;SDS011;64089;51.478;5.692;2022-12-07T05:06:17;12.45;;;5.03;;
42832;SDS011;64089;51.478;5.692;2022-12-07T05:08:43;8.13;;;4.97;;
42832;SDS011;64089;51.478;5.692;2022-12-07T05:11:09;8.32;;;4.95;;
42832;SDS011;64089;51.478;5.692;2022-12-07T05:13:55;16.95;;;5.22;;
42832;SDS011;64089;51.478;5.692;2022-12-07T05:16:20;11.63;;;5.05;;
42832;SDS011;64089;51.478;5.692;2022-12-07T05:18:46;16.35;;;6.30;;
42832;SDS011;64089;51.478;5.692;2022-12-07T05:21:12;15.85;;;6.45;;
42832;SDS011;64089;51.478;5.692;2022-12-07T05:23:37;9.63;;;4.63;;
42832;SDS011;64089;51.478;5.692;2022-12-07T05:26:03;13.13;;;5.90;;
42832;SDS011;64089;51.478;5.692;2022-12-07T05:28:28;8.50;;;5.32;;
42832;SDS011;64089;51.478;5.692;2022-12-07T05:30:54;12.32;;;5.07;;
42832;SDS011;64089;51.478;5.692;2022-12-07T05:33:19;8.07;;;5.00;;
42832;SDS011;64089;51.478;5.692;2022-12-07T05:35:45;7.55;;;4.47;;
42832;SDS011;64089;51.478;5.692;2022-12-07T05:38:11;9.57;;;4.28;;
42832;SDS011;64089;51.478;5.692;2022-12-07T05:40:36;9.77;;;4.03;;
42832;SDS011;64089;51.478;5.692;2022-12-07T05:43:02;11.45;;;4.75;;
42832;SDS011;64089;51.478;5.692;2022-12-07T05:45:27;10.65;;;5.28;;
42832;SDS011;64089;51.478;5.692;2022-12-07T05:47:53;7.38;;;4.35;;
42832;SDS011;64089;51.478;5.692;2022-12-07T05:50:19;8.95;;;4.78;;
42832;SDS011;64089;51.478;5.692;2022-12-07T05:52:44;9.30;;;4.93;;
42832;SDS011;64089;51.478;5.692;2022-12-07T05:55:10;17.80;;;5.28;;
42832;SDS011;64089;51.478;5.692;2022-12-07T05:57:35;8.50;;;5.07;;
42832;SDS011;64089;51.478;5.692;2022-12-07T06:00:02;11.93;;;5.60;;
42832;SDS011;64089;51.478;5.692;2022-12-07T06:02:29;9.85;;;5.05;;
42832;SDS011;64089;51.478;5.692;2022-12-07T06:04:54;12.63;;;5.80;;
42832;SDS011;64089;51.478;5.692;2022-12-07T06:07:20;20.98;;;5.80;;
42832;SDS011;64089;51.478;5.692;2022-12-07T06:09:45;16.65;;;6.70;;
42832;SDS011;64089;51.478;5.692;2022-12-07T06:12:11;15.20;;;6.28;;
42832;SDS011;64089;51.478;5.692;2022-12-07T06:14:56;20.48;;;6.47;;
42832;SDS011;64089;51.478;5.692;2022-12-07T06:17:22;11.25;;;6.00;;
42832;SDS011;64089;51.478;5.692;2022-12-07T06:19:48;8.25;;;5.15;;
42832;SDS011;64089;51.478;5.692;2022-12-07T06:22:14;16.55;;;5.47;;
42832;SDS011;64089;51.478;5.692;2022-12-07T06:24:41;18.52;;;5.93;;
42832;SDS011;64089;51.478;5.692;2022-12-07T06:27:07;20.35;;;6.47;;
42832;SDS011;64089;51.478;5.692;2022-12-07T06:29:33;9.55;;;5.60;;
42832;SDS011;64089;51.478;5.692;2022-12-07T06:31:59;8.70;;;4.60;;
42832;SDS011;64089;51.478;5.692;2022-12-07T06:34:24;12.02;;;5.28;;
42832;SDS011;64089;51.478;5.692;2022-12-07T06:36:51;11.30;;;6.25;;
42832;SDS011;64089;51.478;5.692;2022-12-07T06:39:20;14.20;;;6.43;;
42832;SDS011;64089;51.478;5.692;2022-12-07T06:41:49;9.40;;;5.55;;
42832;SDS011;64089;51.478;5.692;2022-12-07T06:44:16;10.80;;;6.03;;
42832;SDS011;64089;51.478;5.692;2022-12-07T06:46:42;13.95;;;5.40;;
42832;SDS011;64089;51.478;5.692;2022-12-07T06:49:08;12.82;;;6.15;;
42832;SDS011;64089;51.478;5.692;2022-12-07T06:51:34;14.45;;;5.97;;
42832;SDS011;64089;51.478;5.692;2022-12-07T06:54:01;14.98;;;5.80;;
42832;SDS011;64089;51.478;5.692;2022-12-07T06:56:28;11.90;;;5.85;;
42832;SDS011;64089;51.478;5.692;2022-12-07T06:58:54;12.73;;;6.13;;
42832;SDS011;64089;51.478;5.692;2022-12-07T07:01:19;16.60;;;6.82;;
42832;SDS011;64089;51.478;5.692;2022-12-07T07:03:45;13.55;;;5.78;;
42832;SDS011;64089;51.478;5.692;2022-12-07T07:06:11;8.13;;;5.35;;
42832;SDS011;64089;51.478;5.692;2022-12-07T07:08:38;15.02;;;5.80;;
42832;SDS011;64089;51.478;5.692;2022-12-07T07:11:04;15.82;;;6.65;;
42832;SDS011;64089;51.478;5.692;2022-12-07T07:13:30;10.90;;;5.40;;
42832;SDS011;64089;51.478;5.692;2022-12-07T07:15:56;10.48;;;5.00;;
42832;SDS011;64089;51.478;5.692;2022-12-07T07:18:21;13.35;;;5.63;;
42832;SDS011;64089;51.478;5.692;2022-12-07T07:20:47;10.90;;;4.90;;
42832;SDS011;64089;51.478;5.692;2022-12-07T07:23:13;8.95;;;5.07;;
42832;SDS011;64089;51.478;5.692;2022-12-07T07:25:38;16.70;;;6.13;;
42832;SDS011;64089;51.478;5.692;2022-12-07T07:28:04;39.70;;;17.38;;
42832;SDS011;64089;51.478;5.692;2022-12-07T07:30:30;114.43;;;42.97;;
42832;SDS011;64089;51.478;5.692;2022-12-07T07:32:56;100.85;;;41.28;;
42832;SDS011;64089;51.478;5.692;2022-12-07T07:35:26;73.32;;;36.58;;
42832;SDS011;64089;51.478;5.692;2022-12-07T07:37:52;42.83;;;25.85;;
42832;SDS011;64089;51.478;5.692;2022-12-07T07:40:18;28.48;;;18.10;;
42832;SDS011;64089;51.478;5.692;2022-12-07T07:42:46;23.40;;;11.77;;
42832;SDS011;64089;51.478;5.692;2022-12-07T07:45:13;12.15;;;7.40;;
42832;SDS011;64089;51.478;5.692;2022-12-07T07:47:38;16.77;;;5.50;;
42832;SDS011;64089;51.478;5.692;2022-12-07T07:50:04;18.63;;;5.18;;
42832;SDS011;64089;51.478;5.692;2022-12-07T07:52:30;9.90;;;4.13;;
42832;SDS011;64089;51.478;5.692;2022-12-07T07:54:56;11.40;;;4.55;;
42832;SDS011;64089;51.478;5.692;2022-12-07T07:57:22;12.25;;;5.72;;
42832;SDS011;64089;51.478;5.692;2022-12-07T07:59:47;11.43;;;5.28;;
42832;SDS011;64089;51.478;5.692;2022-12-07T08:02:14;15.50;;;5.55;;
42832;SDS011;64089;51.478;5.692;2022-12-07T08:04:41;9.77;;;4.00;;
42832;SDS011;64089;51.478;5.692;2022-12-07T08:07:07;7.10;;;3.90;;
42832;SDS011;64089;51.478;5.692;2022-12-07T08:09:33;12.23;;;5.82;;
42832;SDS011;64089;51.478;5.692;2022-12-07T08:11:59;17.10;;;8.65;;
42832;SDS011;64089;51.478;5.692;2022-12-07T08:14:25;14.65;;;6.82;;
42832;SDS011;64089;51.478;5.692;2022-12-07T08:16:52;12.88;;;4.95;;
42832;SDS011;64089;51.478;5.692;2022-12-07T08:19:18;10.77;;;4.47;;
42832;SDS011;64089;51.478;5.692;2022-12-07T08:21:43;8.95;;;4.05;;
42832;SDS011;64089;51.478;5.692;2022-12-07T08:24:09;9.27;;;4.10;;
42832;SDS011;64089;51.478;5.692;2022-12-07T08:26:34;11.07;;;4.85;;
42832;SDS011;64089;51.478;5.692;2022-12-07T08:29:00;7.57;;;4.47;;
42832;SDS011;64089;51.478;5.692;2022-12-07T08:31:26;23.75;;;10.90;;
42832;SDS011;64089;51.478;5.692;2022-12-07T08:33:52;15.52;;;8.85;;
42832;SDS011;64089;51.478;5.692;2022-12-07T08:36:18;28.98;;;13.10;;
42832;SDS011;64089;51.478;5.692;2022-12-07T08:38:45;16.23;;;8.40;;
42832;SDS011;64089;51.478;5.692;2022-12-07T08:41:11;8.73;;;5.97;;
42832;SDS011;64089;51.478;5.692;2022-12-07T08:43:36;7.47;;;3.95;;
42832;SDS011;64089;51.478;5.692;2022-12-07T08:48:33;19.10;;;5.10;;
42832;SDS011;64089;51.478;5.692;2022-12-07T08:51:02;12.48;;;4.28;;
42832;SDS011;64089;51.478;5.692;2022-12-07T08:53:28;10.30;;;4.32;;
42832;SDS011;64089;51.478;5.692;2022-12-07T08:55:54;20.50;;;8.23;;
42832;SDS011;64089;51.478;5.692;2022-12-07T08:58:21;10.98;;;5.43;;
42832;SDS011;64089;51.478;5.692;2022-12-07T09:00:47;9.13;;;4.93;;
42832;SDS011;64089;51.478;5.692;2022-12-07T09:03:13;8.13;;;5.05;;
42832;SDS011;64089;51.478;5.692;2022-12-07T09:05:38;12.10;;;3.45;;
42832;SDS011;64089;51.478;5.692;2022-12-07T09:08:04;8.52;;;4.65;;
42832;SDS011;64089;51.478;5.692;2022-12-07T09:10:30;9.30;;;4.20;;
42832;SDS011;64089;51.478;5.692;2022-12-07T09:12:56;6.20;;;3.78;;
42832;SDS011;64089;51.478;5.692;2022-12-07T09:15:25;15.27;;;4.18;;
42832;SDS011;64089;51.478;5.692;2022-12-07T09:17:54;10.38;;;3.00;;
42832;SDS011;64089;51.478;5.692;2022-12-07T09:20:20;9.85;;;3.92;;
42832;SDS011;64089;51.478;5.692;2022-12-07T09:22:47;7.72;;;3.50;;
42832;SDS011;64089;51.478;5.692;2022-12-07T09:25:12;9.65;;;3.65;;
42832;SDS011;64089;51.478;5.692;2022-12-07T09:27:38;9.40;;;3.63;;
42832;SDS011;64089;51.478;5.692;2022-12-07T09:30:04;8.10;;;2.92;;
42832;SDS011;64089;51.478;5.692;2022-12-07T09:32:31;12.38;;;3.05;;
42832;SDS011;64089;51.478;5.692;2022-12-07T09:34:57;5.22;;;2.78;;
42832;SDS011;64089;51.478;5.692;2022-12-07T09:37:23;5.05;;;2.65;;
42832;SDS011;64089;51.478;5.692;2022-12-07T09:39:48;34.75;;;14.57;;
42832;SDS011;64089;51.478;5.692;2022-12-07T09:42:33;41.75;;;18.38;;
42832;SDS011;64089;51.478;5.692;2022-12-07T09:45:14;58.28;;;21.58;;
42832;SDS011;64089;51.478;5.692;2022-12-07T09:47:48;84.13;;;33.50;;
42832;SDS011;64089;51.478;5.692;2022-12-07T09:50:19;10.15;;;5.65;;
42832;SDS011;64089;51.478;5.692;2022-12-07T09:52:48;11.77;;;3.33;;
42832;SDS011;64089;51.478;5.692;2022-12-07T09:55:27;8.35;;;2.70;;
42832;SDS011;64089;51.478;5.692;2022-12-07T09:57:54;8.23;;;2.70;;
42832;SDS011;64089;51.478;5.692;2022-12-07T10:00:21;6.75;;;2.72;;
42832;SDS011;64089;51.478;5.692;2022-12-07T10:05:30;11.73;;;2.67;;
42832;SDS011;64089;51.478;5.692;2022-12-07T10:08:16;7.30;;;3.25;;
42832;SDS011;64089;51.478;5.692;2022-12-07T10:10:42;13.65;;;3.35;;
42832;SDS011;64089;51.478;5.692;2022-12-07T10:13:13;11.05;;;3.30;;
42832;SDS011;64089;51.478;5.692;2022-12-07T10:15:47;5.47;;;3.80;;
42832;SDS011;64089;51.478;5.692;2022-12-07T10:23:41;48.72;;;21.30;;
42832;SDS011;64089;51.478;5.692;2022-12-07T10:28:52;63.60;;;26.77;;
42832;SDS011;64089;51.478;5.692;2022-12-07T10:31:19;69.28;;;26.80;;
42832;SDS011;64089;51.478;5.692;2022-12-07T10:33:51;13.48;;;5.05;;
42832;SDS011;64089;51.478;5.692;2022-12-07T10:38:46;11.50;;;3.53;;
42832;SDS011;64089;51.478;5.692;2022-12-07T10:41:14;7.65;;;2.85;;
42832;SDS011;64089;51.478;5.692;2022-12-07T10:43:48;9.43;;;2.15;;
42832;SDS011;64089;51.478;5.692;2022-12-07T10:49:14;7.30;;;3.20;;
42832;SDS011;64089;51.478;5.692;2022-12-07T11:00:42;5.82;;;2.13;;
42832;SDS011;64089;51.478;5.692;2022-12-07T11:03:30;6.82;;;2.08;;
42832;SDS011;64089;51.478;5.692;2022-12-07T11:09:21;6.90;;;2.35;;
42832;SDS011;64089;51.478;5.692;2022-12-07T11:12:21;7.50;;;2.08;;
42832;SDS011;64089;51.478;5.692;2022-12-07T11:17:49;4.85;;;1.60;;
42832;SDS011;64089;51.478;5.692;2022-12-07T11:25:39;6.60;;;2.30;;
42832;SDS011;64089;51.478;5.692;2022-12-07T11:28:24;4.65;;;2.17;;
42832;SDS011;64089;51.478;5.692;2022-12-07T11:33:41;13.10;;;1.85;;
42832;SDS011;64089;51.478;5.692;2022-12-07T11:36:56;6.88;;;1.88;;
42832;SDS011;64089;51.478;5.692;2022-12-07T11:39:26;5.28;;;1.67;;
42832;SDS011;64089;51.478;5.692;2022-12-07T11:42:24;12.10;;;1.90;;
42832;SDS011;64089;51.478;5.692;2022-12-07T12:04:06;8.80;;;1.98;;
42832;SDS011;64089;51.478;5.692;2022-12-07T12:06:35;7.53;;;2.40;;
42832;SDS011;64089;51.478;5.692;2022-12-07T12:09:12;8.30;;;2.53;;
42832;SDS011;64089;51.478;5.692;2022-12-07T12:22:37;8.20;;;2.72;;
42832;SDS011;64089;51.478;5.692;2022-12-07T12:25:07;6.95;;;1.45;;
42832;SDS011;64089;51.478;5.692;2022-12-07T12:27:54;7.47;;;1.40;;
42832;SDS011;64089;51.478;5.692;2022-12-07T12:30:30;9.73;;;1.63;;
42832;SDS011;64089;51.478;5.692;2022-12-07T12:33:16;3.28;;;1.65;;
42832;SDS011;64089;51.478;5.692;2022-12-07T12:38:51;7.03;;;1.23;;
42832;SDS011;64089;51.478;5.692;2022-12-07T12:47:38;5.72;;;1.42;;
42832;SDS011;64089;51.478;5.692;2022-12-07T12:50:26;3.25;;;1.48;;
42832;SDS011;64089;51.478;5.692;2022-12-07T12:58:41;4.70;;;1.05;;
42832;SDS011;64089;51.478;5.692;2022-12-07T13:06:47;5.32;;;2.45;;
42832;SDS011;64089;51.478;5.692;2022-12-07T13:09:23;6.22;;;1.48;;
42832;SDS011;64089;51.478;5.692;2022-12-07T13:12:04;7.27;;;1.20;;
42832;SDS011;64089;51.478;5.692;2022-12-07T13:14:52;6.03;;;1.23;;
42832;SDS011;64089;51.478;5.692;2022-12-07T13:20:06;2.30;;;1.70;;
42832;SDS011;64089;51.478;5.692;2022-12-07T13:25:05;5.22;;;1.52;;
42832;SDS011;64089;51.478;5.692;2022-12-07T13:27:32;1.65;;;0.80;;
42832;SDS011;64089;51.478;5.692;2022-12-07T13:30:00;4.72;;;1.00;;
42832;SDS011;64089;51.478;5.692;2022-12-07T13:32:27;2.30;;;0.80;;
42832;SDS011;64089;51.478;5.692;2022-12-07T13:34:54;0.82;;;0.50;;
42832;SDS011;64089;51.478;5.692;2022-12-07T13:37:24;0.75;;;0.75;;
42832;SDS011;64089;51.478;5.692;2022-12-07T13:39:56;1.55;;;1.10;;
42832;SDS011;64089;51.478;5.692;2022-12-07T13:44:56;2.25;;;0.85;;
42832;SDS011;64089;51.478;5.692;2022-12-07T13:47:31;2.42;;;0.63;;
42832;SDS011;64089;51.478;5.692;2022-12-07T13:50:01;3.38;;;1.33;;
42832;SDS011;64089;51.478;5.692;2022-12-07T13:52:49;3.75;;;1.27;;
42832;SDS011;64089;51.478;5.692;2022-12-07T13:55:15;5.45;;;1.45;;
42832;SDS011;64089;51.478;5.692;2022-12-07T13:57:42;3.10;;;0.55;;
42832;SDS011;64089;51.478;5.692;2022-12-07T14:00:32;5.10;;;1.20;;
42832;SDS011;64089;51.478;5.692;2022-12-07T14:02:58;5.95;;;1.15;;
42832;SDS011;64089;51.478;5.692;2022-12-07T14:07:55;5.70;;;0.88;;
42832;SDS011;64089;51.478;5.692;2022-12-07T14:10:32;5.03;;;1.17;;
42832;SDS011;64089;51.478;5.692;2022-12-07T14:13:02;7.85;;;1.23;;
42832;SDS011;64089;51.478;5.692;2022-12-07T14:15:49;5.13;;;1.10;;
42832;SDS011;64089;51.478;5.692;2022-12-07T14:18:29;10.43;;;2.08;;
42832;SDS011;64089;51.478;5.692;2022-12-07T14:21:19;7.00;;;1.98;;
42832;SDS011;64089;51.478;5.692;2022-12-07T14:26:34;9.05;;;2.15;;
42832;SDS011;64089;51.478;5.692;2022-12-07T14:29:20;1.90;;;1.17;;
42832;SDS011;64089;51.478;5.692;2022-12-07T14:31:52;4.80;;;1.70;;
42832;SDS011;64089;51.478;5.692;2022-12-07T14:34:21;14.63;;;2.05;;
42832;SDS011;64089;51.478;5.692;2022-12-07T14:36:48;2.60;;;1.00;;
42832;SDS011;64089;51.478;5.692;2022-12-07T14:39:15;4.32;;;1.50;;
42832;SDS011;64089;51.478;5.692;2022-12-07T14:41:40;7.40;;;1.38;;
42832;SDS011;64089;51.478;5.692;2022-12-07T14:44:21;4.28;;;0.90;;
42832;SDS011;64089;51.478;5.692;2022-12-07T14:46:48;2.88;;;0.90;;
42832;SDS011;64089;51.478;5.692;2022-12-07T14:49:15;3.88;;;1.73;;
42832;SDS011;64089;51.478;5.692;2022-12-07T14:51:41;4.90;;;1.70;;
42832;SDS011;64089;51.478;5.692;2022-12-07T14:54:16;11.45;;;1.98;;
42832;SDS011;64089;51.478;5.692;2022-12-07T14:56:43;6.15;;;1.48;;
42832;SDS011;64089;51.478;5.692;2022-12-07T14:59:10;6.82;;;1.38;;
42832;SDS011;64089;51.478;5.692;2022-12-07T15:01:36;9.77;;;1.85;;
42832;SDS011;64089;51.478;5.692;2022-12-07T15:04:03;4.72;;;1.80;;
42832;SDS011;64089;51.478;5.692;2022-12-07T15:06:28;6.88;;;1.50;;
42832;SDS011;64089;51.478;5.692;2022-12-07T15:08:54;10.25;;;2.05;;
42832;SDS011;64089;51.478;5.692;2022-12-07T15:11:20;4.88;;;1.50;;
42832;SDS011;64089;51.478;5.692;2022-12-07T15:13:45;2.20;;;1.35;;
42832;SDS011;64089;51.478;5.692;2022-12-07T15:16:29;2.63;;;1.60;;
42832;SDS011;64089;51.478;5.692;2022-12-07T15:18:55;10.18;;;2.45;;
42832;SDS011;64089;51.478;5.692;2022-12-07T15:21:21;7.18;;;1.80;;
42832;SDS011;64089;51.478;5.692;2022-12-07T15:23:47;2.38;;;1.35;;
42832;SDS011;64089;51.478;5.692;2022-12-07T15:26:12;1.58;;;1.42;;
42832;SDS011;64089;51.478;5.692;2022-12-07T15:28:38;6.95;;;1.88;;
42832;SDS011;64089;51.478;5.692;2022-12-07T15:31:10;4.38;;;1.52;;
42832;SDS011;64089;51.478;5.692;2022-12-07T15:33:39;5.53;;;1.58;;
42832;SDS011;64089;51.478;5.692;2022-12-07T15:36:04;3.17;;;1.60;;
42832;SDS011;64089;51.478;5.692;2022-12-07T15:38:30;5.82;;;1.77;;
42832;SDS011;64089;51.478;5.692;2022-12-07T15:40:56;5.20;;;1.83;;
42832;SDS011;64089;51.478;5.692;2022-12-07T15:43:22;7.07;;;2.22;;
42832;SDS011;64089;51.478;5.692;2022-12-07T15:46:06;6.30;;;2.03;;
42832;SDS011;64089;51.478;5.692;2022-12-07T15:48:32;9.35;;;2.00;;
42832;SDS011;64089;51.478;5.692;2022-12-07T15:51:04;6.55;;;2.70;;
42832;SDS011;64089;51.478;5.692;2022-12-07T15:53:30;5.05;;;2.28;;
42832;SDS011;64089;51.478;5.692;2022-12-07T15:55:56;6.93;;;2.05;;
42832;SDS011;64089;51.478;5.692;2022-12-07T15:58:22;3.90;;;1.85;;
42832;SDS011;64089;51.478;5.692;2022-12-07T16:00:47;7.20;;;1.90;;
42832;SDS011;64089;51.478;5.692;2022-12-07T16:03:13;38.00;;;16.27;;
42832;SDS011;64089;51.478;5.692;2022-12-07T16:05:39;38.60;;;17.40;;
42832;SDS011;64089;51.478;5.692;2022-12-07T16:08:04;70.18;;;30.30;;
42832;SDS011;64089;51.478;5.692;2022-12-07T16:10:30;107.72;;;42.47;;
42832;SDS011;64089;51.478;5.692;2022-12-07T16:12:56;21.50;;;9.82;;
42832;SDS011;64089;51.478;5.692;2022-12-07T16:15:21;6.22;;;3.53;;
42832;SDS011;64089;51.478;5.692;2022-12-07T16:17:49;5.25;;;3.08;;
42832;SDS011;64089;51.478;5.692;2022-12-07T16:20:15;7.60;;;2.88;;
42832;SDS011;64089;51.478;5.692;2022-12-07T16:22:41;4.18;;;2.05;;
42832;SDS011;64089;51.478;5.692;2022-12-07T16:25:07;8.25;;;3.45;;
42832;SDS011;64089;51.478;5.692;2022-12-07T16:27:33;12.00;;;2.78;;
42832;SDS011;64089;51.478;5.692;2022-12-07T16:29:59;10.35;;;4.28;;
42832;SDS011;64089;51.478;5.692;2022-12-07T16:32:25;15.75;;;4.90;;
42832;SDS011;64089;51.478;5.692;2022-12-07T16:34:50;11.57;;;4.90;;
42832;SDS011;64089;51.478;5.692;2022-12-07T16:37:16;6.45;;;3.50;;
42832;SDS011;64089;51.478;5.692;2022-12-07T16:39:41;13.95;;;4.65;;
42832;SDS011;64089;51.478;5.692;2022-12-07T16:42:07;6.53;;;3.38;;
42832;SDS011;64089;51.478;5.692;2022-12-07T16:44:33;7.18;;;2.97;;
42832;SDS011;64089;51.478;5.692;2022-12-07T16:46:59;6.68;;;3.15;;
42832;SDS011;64089;51.478;5.692;2022-12-07T16:49:25;6.82;;;2.50;;
42832;SDS011;64089;51.478;5.692;2022-12-07T16:51:51;8.52;;;2.58;;
42832;SDS011;64089;51.478;5.692;2022-12-07T16:54:17;4.75;;;2.40;;
42832;SDS011;64089;51.478;5.692;2022-12-07T16:56:42;3.83;;;2.42;;
42832;SDS011;64089;51.478;5.692;2022-12-07T16:59:08;4.68;;;2.65;;
42832;SDS011;64089;51.478;5.692;2022-12-07T17:01:34;3.63;;;2.63;;
42832;SDS011;64089;51.478;5.692;2022-12-07T17:04:00;3.78;;;2.35;;
42832;SDS011;64089;51.478;5.692;2022-12-07T17:06:27;7.22;;;2.63;;
42832;SDS011;64089;51.478;5.692;2022-12-07T17:08:54;8.18;;;2.83;;
42832;SDS011;64089;51.478;5.692;2022-12-07T17:11:25;6.55;;;2.85;;